createdAt,value
2022-11-22T00:01:49.259Z,63.58
2022-11-22T00:04:16.863Z,64.08
2022-11-22T00:06:45.847Z,63.71
2022-11-22T00:09:13.471Z,63.83
2022-11-22T00:11:41.098Z,64.04
2022-11-22T00:14:08.764Z,64.70
2022-11-22T00:16:36.406Z,65.18
2022-11-22T00:19:04.077Z,65.34
2022-11-22T00:21:31.700Z,64.86
2022-11-22T00:24:00.654Z,65.26
2022-11-22T00:26:28.296Z,65.88
2022-11-22T00:28:55.919Z,66.05
2022-11-22T00:31:23.756Z,66.49
2022-11-22T00:33:51.330Z,65.72
2022-11-22T00:36:18.974Z,65.87
2022-11-22T00:38:46.578Z,65.94
2022-11-22T00:41:15.568Z,65.22
2022-11-22T00:43:43.260Z,64.11
2022-11-22T00:46:10.922Z,63.07
2022-11-22T00:48:38.530Z,63.56
2022-11-22T00:51:06.466Z,63.93
2022-11-22T00:53:34.069Z,63.83
2022-11-22T00:56:01.827Z,64.71
2022-11-22T00:58:30.841Z,64.57
2022-11-22T01:00:58.480Z,64.60
2022-11-22T01:03:26.524Z,64.76
2022-11-22T01:05:54.200Z,65.04
2022-11-22T01:08:21.862Z,65.11
2022-11-22T01:10:49.544Z,65.22
2022-11-22T01:13:17.133Z,65.42
2022-11-22T01:15:46.085Z,65.23
2022-11-22T01:18:13.796Z,65.03
2022-11-22T01:20:41.836Z,64.89
2022-11-22T01:23:09.483Z,65.17
2022-11-22T01:25:37.184Z,65.34
2022-11-22T01:28:05.016Z,65.76
2022-11-22T01:30:32.613Z,65.28
2022-11-22T01:33:01.622Z,65.15
2022-11-22T01:35:29.287Z,65.22
2022-11-22T01:37:56.970Z,65.46
2022-11-22T01:40:24.614Z,65.67
2022-11-22T01:42:54.753Z,65.94
2022-11-22T01:45:42.595Z,66.09
2022-11-22T01:48:31.939Z,66.66
2022-11-22T01:51:03.830Z,67.12
2022-11-22T01:53:35.864Z,67.65
2022-11-22T01:56:05.520Z,67.57
2022-11-22T01:58:35.591Z,67.40
2022-11-22T02:01:03.681Z,67.83
2022-11-22T02:03:35.757Z,67.54
2022-11-22T02:06:03.943Z,67.76
2022-11-22T02:08:38.181Z,67.98
2022-11-22T02:11:09.104Z,68.03
2022-11-22T02:13:41.041Z,67.94
2022-11-22T02:16:08.770Z,68.33
2022-11-22T02:18:39.733Z,68.30
2022-11-22T02:21:08.822Z,68.53
2022-11-22T02:23:48.033Z,68.55
2022-11-22T02:26:17.374Z,68.68
2022-11-22T02:28:45.452Z,68.73
2022-11-22T02:31:34.476Z,68.66
2022-11-22T02:34:02.173Z,68.72
2022-11-22T02:36:31.274Z,69.35
2022-11-22T02:38:58.926Z,69.12
2022-11-22T02:41:28.634Z,69.53
2022-11-22T02:43:56.274Z,68.62
2022-11-22T02:46:23.923Z,68.60
2022-11-22T02:48:51.903Z,68.79
2022-11-22T02:51:20.567Z,68.65
2022-11-22T02:53:50.553Z,68.95
2022-11-22T02:56:18.775Z,68.91
2022-11-22T02:58:47.839Z,69.41
2022-11-22T03:01:15.638Z,69.80
2022-11-22T03:03:43.292Z,69.89
2022-11-22T03:06:10.944Z,70.03
2022-11-22T03:08:38.621Z,70.13
2022-11-22T03:11:06.424Z,70.44
2022-11-22T03:13:34.151Z,70.78
2022-11-22T03:16:03.203Z,70.42
2022-11-22T03:18:30.858Z,71.18
2022-11-22T03:21:03.194Z,70.47
2022-11-22T03:23:30.899Z,70.02
2022-11-22T03:25:59.040Z,69.95
2022-11-22T03:28:27.399Z,70.08
2022-11-22T03:30:55.113Z,69.95
2022-11-22T03:33:24.454Z,70.44
2022-11-22T03:35:55.983Z,70.45
2022-11-22T03:38:23.696Z,70.91
2022-11-22T03:40:51.330Z,71.12
2022-11-22T03:43:18.989Z,71.28
2022-11-22T03:45:47.530Z,72.13
2022-11-22T03:48:15.406Z,72.56
2022-11-22T03:50:45.023Z,72.98
2022-11-22T03:53:12.766Z,73.40
2022-11-22T03:55:40.815Z,74.00
2022-11-22T03:58:09.147Z,74.27
2022-11-22T04:00:37.357Z,74.68
2022-11-22T04:03:05.050Z,74.95
2022-11-22T04:05:32.759Z,75.34
2022-11-22T04:08:01.812Z,75.15
2022-11-22T04:10:29.482Z,75.82
2022-11-22T04:13:00.537Z,76.19
2022-11-22T04:15:27.388Z,76.86
2022-11-22T04:17:55.082Z,77.54
2022-11-22T04:20:42.449Z,78.23
2022-11-22T04:23:13.676Z,78.62
2022-11-22T04:25:42.043Z,78.57
2022-11-22T04:28:11.518Z,78.59
2022-11-22T04:30:56.949Z,77.53
2022-11-22T04:33:25.171Z,77.69
2022-11-22T04:35:53.388Z,77.42
2022-11-22T04:38:23.565Z,77.36
2022-11-22T04:40:51.753Z,77.02
2022-11-22T04:43:40.042Z,77.55
2022-11-22T04:51:34.372Z,77.49
2022-11-22T04:54:06.333Z,77.30
2022-11-22T04:56:34.092Z,77.42
2022-11-22T05:03:09.456Z,78.07
2022-11-22T05:05:38.392Z,78.02
2022-11-22T05:08:25.277Z,77.92
2022-11-22T05:11:00.404Z,78.06
2022-11-22T05:13:30.997Z,78.34
2022-11-22T05:19:49.037Z,78.78
2022-11-22T05:26:02.387Z,78.51
2022-11-22T05:29:24.459Z,78.44
2022-11-22T05:31:52.965Z,78.47
2022-11-22T05:34:20.638Z,78.57
2022-11-22T05:37:33.844Z,78.57
2022-11-22T05:40:01.548Z,78.61
2022-11-22T05:42:30.674Z,79.15
2022-11-22T05:45:02.289Z,79.10
2022-11-22T05:47:34.184Z,79.07
2022-11-22T05:50:02.245Z,79.33
2022-11-22T05:56:24.366Z,80.12
2022-11-22T05:58:54.539Z,80.18
2022-11-22T06:02:36.933Z,80.40
2022-11-22T06:05:28.716Z,80.64
2022-11-22T06:08:02.057Z,80.69
2022-11-22T06:10:36.691Z,80.80
2022-11-22T06:13:07.221Z,80.90
2022-11-22T06:19:18.646Z,80.10
2022-11-22T06:22:01.815Z,80.45
2022-11-22T06:24:29.692Z,80.56
2022-11-22T06:27:07.248Z,80.52
2022-11-22T06:33:31.988Z,80.50
2022-11-22T06:36:38.919Z,80.53
2022-11-22T06:39:14.947Z,80.69
2022-11-22T06:41:47.521Z,80.49
2022-11-22T06:44:37.615Z,80.21
2022-11-22T06:47:46.300Z,79.90
2022-11-22T06:50:20.394Z,80.43
2022-11-22T06:52:54.377Z,80.91
2022-11-22T06:55:49.552Z,81.25
2022-11-22T06:58:19.236Z,81.71
2022-11-22T07:00:48.055Z,82.00
2022-11-22T07:03:17.719Z,82.44
2022-11-22T07:05:52.518Z,82.34
2022-11-22T07:08:22.368Z,82.10
2022-11-22T07:10:50.157Z,82.19
2022-11-22T07:13:17.822Z,82.09
2022-11-22T07:15:45.498Z,82.40
2022-11-22T07:18:14.152Z,82.25
2022-11-22T07:20:41.791Z,82.14
2022-11-22T07:23:12.551Z,82.04
2022-11-22T07:25:40.183Z,82.35
2022-11-22T07:28:07.911Z,82.02
2022-11-22T07:30:41.187Z,82.31
2022-11-22T07:33:11.655Z,82.82
2022-11-22T07:35:39.267Z,82.91
2022-11-22T07:38:06.879Z,82.94
2022-11-22T07:40:36.234Z,82.48
2022-11-22T07:43:03.863Z,82.52
2022-11-22T07:45:31.443Z,82.58
2022-11-22T07:48:00.661Z,82.55
2022-11-22T07:50:29.026Z,81.73
2022-11-22T07:52:57.416Z,81.81
2022-11-22T07:55:26.954Z,81.42
2022-11-22T07:57:59.370Z,81.27
2022-11-22T08:00:27.649Z,81.13
2022-11-22T08:02:55.592Z,81.01
2022-11-22T08:05:23.247Z,81.32
2022-11-22T08:07:52.231Z,81.01
2022-11-22T08:10:21.150Z,80.93
2022-11-22T08:12:48.915Z,81.00
2022-11-22T08:15:18.257Z,80.78
2022-11-22T08:17:45.982Z,81.10
2022-11-22T08:20:13.745Z,81.04
2022-11-22T08:22:41.837Z,81.54
2022-11-22T08:25:12.745Z,81.38
2022-11-22T08:27:41.476Z,81.43
2022-11-22T08:30:10.236Z,81.41
2022-11-22T08:32:39.686Z,81.33
2022-11-22T08:35:09.254Z,81.30
2022-11-22T08:37:42.602Z,81.56
2022-11-22T08:40:14.058Z,81.29
2022-11-22T08:42:41.699Z,81.53
2022-11-22T08:45:12.640Z,81.12
2022-11-22T08:47:41.566Z,81.39
2022-11-22T08:50:10.410Z,81.22
2022-11-22T08:52:38.100Z,80.87
2022-11-22T08:55:06.512Z,81.58
2022-11-22T08:57:35.835Z,81.57
2022-11-22T09:00:05.613Z,81.25
2022-11-22T09:02:33.297Z,81.20
2022-11-22T09:05:02.240Z,81.16
2022-11-22T09:10:18.162Z,80.92
2022-11-22T09:12:46.709Z,80.61
2022-11-22T09:15:15.782Z,80.54
2022-11-22T09:17:44.224Z,80.86
2022-11-22T09:20:13.537Z,80.06
2022-11-22T09:22:42.586Z,80.09
2022-11-22T09:25:16.686Z,80.41
2022-11-22T09:27:44.482Z,80.38
2022-11-22T09:30:12.722Z,80.34
2022-11-22T09:32:40.384Z,80.57
2022-11-22T09:35:08.300Z,81.07
2022-11-22T09:37:37.462Z,81.00
2022-11-22T09:40:07.546Z,80.97
2022-11-22T09:42:57.765Z,80.04
2022-11-22T09:45:52.498Z,80.33
2022-11-22T09:48:36.181Z,81.00
2022-11-22T09:51:10.235Z,80.63
2022-11-22T09:53:43.902Z,79.92
2022-11-22T09:56:14.332Z,79.58
2022-11-22T09:58:46.532Z,78.33
2022-11-22T10:01:20.580Z,77.81
2022-11-22T10:03:53.335Z,78.13
2022-11-22T10:06:27.769Z,78.19
2022-11-22T10:09:09.278Z,78.75
2022-11-22T10:11:41.341Z,78.71
2022-11-22T10:14:23.429Z,78.67
2022-11-22T10:16:56.761Z,78.47
2022-11-22T10:19:31.240Z,77.91
2022-11-22T10:21:58.987Z,78.19
2022-11-22T10:24:30.109Z,77.84
2022-11-22T10:26:59.196Z,77.93
2022-11-22T10:29:33.684Z,76.05
2022-11-22T10:32:12.841Z,76.54
2022-11-22T10:34:56.687Z,76.61
2022-11-22T10:37:35.352Z,76.65
2022-11-22T10:40:15.306Z,76.60
2022-11-22T10:42:58.543Z,75.58
2022-11-22T10:45:31.890Z,75.81
2022-11-22T10:48:10.950Z,75.94
2022-11-22T10:50:52.677Z,76.21
2022-11-22T10:53:29.023Z,75.47
2022-11-22T10:56:05.673Z,75.32
2022-11-22T10:58:41.463Z,75.11
2022-11-22T11:01:20.359Z,74.24
2022-11-22T11:03:52.619Z,74.39
2022-11-22T11:06:37.795Z,74.42
2022-11-22T11:12:16.518Z,73.84
2022-11-22T11:14:47.894Z,73.67
2022-11-22T11:17:19.209Z,73.70
2022-11-22T11:19:49.669Z,73.21
2022-11-22T11:22:44.297Z,73.40
2022-11-22T11:25:29.201Z,73.50
2022-11-22T11:28:03.187Z,73.87
2022-11-22T11:30:39.101Z,74.49
2022-11-22T11:33:18.282Z,74.16
2022-11-22T11:35:47.151Z,74.18
2022-11-22T11:38:33.513Z,74.54
2022-11-22T11:41:18.509Z,74.26
2022-11-22T11:43:47.851Z,74.67
2022-11-22T11:46:19.029Z,75.22
2022-11-22T11:48:47.548Z,75.94
2022-11-22T11:51:19.666Z,76.05
2022-11-22T11:54:01.109Z,75.94
2022-11-22T11:56:33.536Z,75.93
2022-11-22T11:59:08.274Z,75.87
2022-11-22T12:01:39.131Z,76.18
2022-11-22T12:04:15.473Z,76.22
2022-11-22T12:06:43.319Z,76.14
2022-11-22T12:09:29.751Z,75.91
2022-11-22T12:12:03.398Z,76.15
2022-11-22T12:14:55.618Z,75.82
2022-11-22T12:17:28.089Z,75.62
2022-11-22T12:20:03.378Z,74.81
2022-11-22T12:22:53.965Z,74.62
2022-11-22T12:25:34.899Z,75.26
2022-11-22T12:28:13.003Z,75.68
2022-11-22T12:30:45.174Z,75.67
2022-11-22T12:33:20.082Z,75.51
2022-11-22T12:35:49.566Z,75.72
2022-11-22T12:38:21.722Z,76.22
2022-11-22T12:40:52.315Z,75.86
2022-11-22T12:43:25.948Z,75.96
2022-11-22T12:45:58.784Z,76.61
2022-11-22T12:48:33.155Z,76.82
2022-11-22T12:51:07.204Z,76.66
2022-11-22T12:53:38.285Z,76.89
2022-11-22T12:56:13.937Z,76.87
2022-11-22T12:58:48.759Z,77.40
2022-11-22T13:01:25.641Z,77.64
2022-11-22T13:03:58.664Z,77.79
2022-11-22T13:06:29.354Z,77.72
2022-11-22T13:09:03.935Z,76.54
2022-11-22T13:11:36.089Z,76.73
2022-11-22T13:14:07.781Z,77.13
2022-11-22T13:16:37.840Z,76.55
2022-11-22T13:19:08.256Z,76.20
2022-11-22T13:21:47.784Z,76.24
2022-11-22T13:24:29.231Z,76.31
2022-11-22T13:27:10.827Z,75.67
2022-11-22T13:29:42.088Z,75.83
2022-11-22T13:32:20.455Z,75.64
2022-11-22T13:35:03.767Z,75.70
2022-11-22T13:37:34.883Z,75.74
2022-11-22T13:40:19.285Z,75.52
2022-11-22T13:42:46.867Z,75.60
2022-11-22T13:45:22.571Z,75.20
2022-11-22T13:47:52.539Z,74.35
2022-11-22T13:51:02.531Z,74.35
2022-11-22T13:53:33.508Z,74.27
2022-11-22T13:56:46.072Z,74.70
2022-11-22T13:59:16.032Z,74.85
2022-11-22T14:02:00.211Z,74.87
2022-11-22T14:04:39.656Z,74.89
2022-11-22T14:07:37.391Z,75.09
2022-11-22T14:10:25.150Z,75.16
2022-11-22T14:13:26.587Z,75.20
2022-11-22T14:16:11.483Z,75.63
2022-11-22T14:18:50.902Z,75.24
2022-11-22T14:21:30.800Z,74.91
2022-11-22T14:24:06.828Z,75.00
2022-11-22T14:26:42.579Z,75.13
2022-11-22T14:29:57.392Z,75.04
2022-11-22T14:32:26.313Z,75.46
2022-11-22T14:35:22.458Z,75.71
2022-11-22T14:38:38.736Z,75.67
2022-11-22T14:41:41.631Z,75.41
2022-11-22T14:44:14.498Z,74.80
2022-11-22T14:46:54.792Z,75.28
2022-11-22T14:49:32.760Z,75.27
2022-11-22T14:52:01.446Z,74.92
2022-11-22T14:54:38.805Z,75.06
2022-11-22T14:57:13.338Z,74.94
2022-11-22T15:00:00.348Z,74.97
2022-11-22T15:02:57.992Z,74.69
2022-11-22T15:09:13.164Z,74.84
2022-11-22T15:09:23.223Z,75.02
2022-11-22T15:11:54.079Z,74.57
2022-11-22T15:57:45.716Z,73.01
2022-11-22T16:00:21.831Z,73.32
2022-11-22T16:02:51.249Z,72.59
2022-11-22T16:06:08.005Z,72.65
2022-11-22T16:08:20.391Z,72.66
2022-11-22T16:10:51.018Z,72.43
2022-11-22T16:13:29.985Z,72.57
2022-11-22T16:16:17.413Z,72.30
2022-11-22T16:18:46.222Z,72.61
2022-11-22T16:21:25.120Z,72.05
2022-11-22T16:24:12.510Z,72.54
2022-11-22T16:26:40.804Z,72.37
2022-11-22T16:29:25.992Z,72.45
2022-11-22T16:32:01.231Z,72.04
2022-11-22T16:34:28.828Z,72.17
2022-11-22T16:36:57.832Z,71.82
2022-11-22T16:39:25.539Z,71.80
2022-11-22T16:41:53.397Z,71.69
2022-11-22T16:44:22.525Z,71.48
2022-11-22T16:46:50.204Z,71.20
2022-11-22T16:49:19.763Z,71.19
2022-11-22T16:51:48.557Z,70.97
2022-11-22T16:54:20.388Z,70.88
2022-11-22T16:56:48.336Z,70.82
2022-11-22T16:59:16.104Z,70.34
2022-11-22T17:01:44.675Z,70.78
2022-11-22T17:04:22.026Z,70.77
2022-11-22T17:06:50.363Z,70.33
2022-11-22T17:09:19.447Z,70.02
2022-11-22T17:11:47.553Z,70.17
2022-11-22T17:14:15.591Z,70.06
2022-11-22T17:16:43.694Z,70.02
2022-11-22T17:22:00.732Z,70.69
2022-11-22T17:24:30.316Z,70.16
2022-11-22T17:26:58.075Z,70.20
2022-11-22T17:29:49.474Z,70.35
2022-11-22T17:32:13.815Z,69.89
2022-11-22T17:34:41.483Z,70.25
2022-11-22T17:37:12.883Z,70.27
2022-11-22T17:39:42.017Z,69.55
2022-11-22T17:42:09.746Z,69.64
2022-11-22T17:44:37.328Z,69.24
2022-11-22T17:47:04.949Z,69.13
2022-11-22T17:49:32.872Z,68.53
2022-11-22T17:52:00.659Z,68.23
2022-11-22T17:54:28.355Z,68.82
2022-11-22T17:56:57.330Z,67.56
2022-11-22T17:59:24.951Z,68.20
2022-11-22T18:01:52.589Z,67.68
2022-11-22T18:04:20.191Z,67.70
2022-11-22T18:06:47.784Z,67.14
2022-11-22T18:09:15.407Z,67.42
2022-11-22T18:11:43.510Z,68.12
2022-11-22T18:14:13.000Z,68.25
2022-11-22T18:16:40.633Z,67.43
2022-11-22T18:19:08.283Z,67.63
2022-11-22T18:21:35.901Z,68.18
2022-11-22T18:24:03.619Z,67.46
2022-11-22T18:26:39.684Z,67.25
2022-11-22T18:29:38.986Z,67.33
2022-11-22T18:31:58.318Z,68.15
2022-11-22T18:34:25.984Z,67.99
2022-11-22T18:36:57.598Z,66.97
2022-11-22T18:39:29.625Z,67.93
2022-11-22T18:41:57.472Z,68.28
2022-11-22T18:44:25.112Z,67.66
2022-11-22T18:46:52.938Z,68.17
2022-11-22T18:49:21.885Z,66.32
2022-11-22T18:51:49.490Z,66.00
2022-11-22T18:54:18.084Z,66.33
2022-11-22T18:56:45.677Z,66.97
2022-11-22T18:59:13.448Z,66.46
2022-11-22T19:01:41.950Z,66.59
2022-11-22T19:04:12.928Z,65.93
2022-11-22T19:06:42.861Z,65.71
2022-11-22T19:09:11.538Z,65.22
2022-11-22T19:11:39.129Z,65.45
2022-11-22T19:14:07.300Z,65.96
2022-11-22T19:16:34.931Z,65.95
2022-11-22T19:19:02.688Z,65.82
2022-11-22T19:21:31.391Z,66.08
2022-11-22T19:24:03.793Z,66.42
2022-11-22T19:26:32.361Z,65.68
2022-11-22T19:29:03.853Z,65.73
2022-11-22T19:31:34.090Z,65.32
2022-11-22T19:34:03.153Z,65.89
2022-11-22T19:36:34.288Z,65.62
2022-11-22T19:39:05.171Z,65.96
2022-11-22T19:41:33.411Z,66.27
2022-11-22T19:44:01.507Z,65.92
2022-11-22T19:46:29.556Z,66.24
2022-11-22T19:48:59.191Z,66.69
2022-11-22T19:51:28.317Z,66.18
2022-11-22T19:53:58.693Z,66.42
2022-11-22T19:56:30.571Z,66.87
2022-11-22T19:58:59.808Z,67.12
2022-11-22T20:01:29.883Z,67.38
2022-11-22T20:03:59.075Z,67.02
2022-11-22T20:06:27.589Z,67.10
2022-11-22T20:09:00.871Z,67.24
2022-11-22T20:11:29.921Z,67.30
2022-11-22T20:13:57.516Z,67.23
2022-11-22T20:16:26.834Z,67.24
2022-11-22T20:18:54.841Z,66.97
2022-11-22T20:21:23.054Z,66.63
2022-11-22T20:23:51.482Z,67.29
2022-11-22T20:26:20.031Z,67.34
2022-11-22T20:28:54.822Z,66.13
2022-11-22T20:31:23.752Z,66.04
2022-11-22T20:33:53.941Z,66.92
2022-11-22T20:36:23.142Z,66.41
2022-11-22T20:38:51.788Z,66.12
2022-11-22T20:41:20.795Z,66.32
2022-11-22T20:43:50.523Z,67.08
2022-11-22T20:46:19.948Z,67.62
2022-11-22T20:48:48.807Z,68.49
2022-11-22T20:51:18.667Z,68.77
2022-11-22T20:53:47.036Z,68.95
2022-11-22T20:56:15.327Z,69.52
2022-11-22T20:58:43.675Z,69.68
2022-11-22T21:01:14.895Z,69.53
2022-11-22T21:03:42.951Z,69.44
2022-11-22T21:06:11.616Z,69.87
2022-11-22T21:08:39.329Z,70.21
2022-11-22T21:11:08.767Z,70.26
2022-11-22T21:13:36.419Z,70.31
2022-11-22T21:16:15.595Z,70.64
2022-11-22T21:18:52.792Z,70.86
2022-11-22T21:21:23.566Z,70.81
2022-11-22T21:23:52.478Z,70.79
2022-11-22T21:26:20.399Z,70.81
2022-11-22T21:28:47.996Z,70.68
2022-11-22T21:31:16.193Z,70.43
2022-11-22T21:33:45.472Z,70.52
2022-11-22T21:36:15.234Z,69.52
2022-11-22T21:38:43.018Z,69.63
2022-11-22T21:41:38.934Z,69.14
2022-11-22T21:44:01.921Z,69.45
2022-11-22T21:46:29.542Z,68.83
2022-11-22T21:48:57.313Z,68.85
2022-11-22T21:51:26.658Z,69.13
2022-11-22T21:53:58.453Z,69.25
2022-11-22T21:56:26.352Z,69.09
2022-11-22T21:58:54.096Z,69.27
2022-11-22T22:01:21.741Z,69.07
2022-11-22T22:03:49.467Z,68.91
2022-11-22T22:06:17.099Z,69.39
2022-11-22T22:08:46.439Z,69.20
2022-11-22T22:11:14.113Z,69.85
2022-11-22T22:13:41.787Z,70.28
2022-11-22T22:16:12.984Z,69.96
2022-11-22T22:18:40.619Z,70.14
2022-11-22T22:21:10.428Z,70.28
2022-11-22T22:23:39.862Z,70.51
2022-11-22T22:26:10.879Z,71.08
2022-11-22T22:28:39.354Z,71.15
2022-11-22T22:31:08.761Z,70.66
2022-11-22T22:33:37.410Z,70.92
2022-11-22T22:36:05.558Z,70.17
2022-11-22T22:38:33.951Z,70.37
2022-11-22T22:41:03.601Z,70.67
2022-11-22T22:43:34.224Z,70.23
2022-11-22T22:46:06.657Z,70.44
2022-11-22T22:48:35.264Z,70.61
2022-11-22T22:51:08.083Z,70.46
2022-11-22T22:53:36.079Z,70.39
2022-11-22T22:56:04.334Z,69.93
2022-11-22T22:58:33.370Z,69.90
2022-11-22T23:01:09.566Z,69.92
2022-11-22T23:03:37.956Z,69.51
2022-11-22T23:06:07.482Z,70.19
2022-11-22T23:08:35.362Z,69.75
2022-11-22T23:11:04.401Z,69.34
2022-11-22T23:13:35.103Z,69.42
2022-11-22T23:16:03.034Z,69.72
2022-11-22T23:18:30.922Z,69.43
2022-11-22T23:21:02.206Z,70.09
2022-11-22T23:23:30.450Z,69.73
2022-11-22T23:26:02.857Z,70.05
2022-11-22T23:28:30.918Z,70.51
2022-11-22T23:31:06.452Z,70.38
2022-11-22T23:33:34.504Z,70.76
2022-11-22T23:36:04.021Z,70.41
2022-11-22T23:38:31.962Z,70.84
2022-11-22T23:41:00.049Z,70.72
2022-11-22T23:43:27.864Z,70.86
2022-11-22T23:45:56.175Z,71.10
2022-11-22T23:48:25.516Z,71.03
2022-11-22T23:50:53.320Z,70.51
2022-11-22T23:53:21.285Z,70.57
2022-11-22T23:55:48.999Z,70.42
2022-11-22T23:58:16.713Z,71.25
